createdAt,value
2023-08-24T00:00:34.199Z,0.00
2023-08-24T00:01:34.198Z,0.00
2023-08-24T00:02:34.211Z,0.00
2023-08-24T00:03:33.561Z,0.00
2023-08-24T00:04:33.472Z,0.00
2023-08-24T00:05:34.149Z,0.00
2023-08-24T00:06:34.135Z,0.00
2023-08-24T00:07:33.440Z,0.00
2023-08-24T00:08:33.450Z,0.00
2023-08-24T00:09:33.415Z,0.00
2023-08-24T00:10:33.423Z,0.00
2023-08-24T00:11:34.079Z,0.00
2023-08-24T00:12:34.058Z,0.00
2023-08-24T00:13:34.071Z,0.00
2023-08-24T00:14:34.054Z,0.00
2023-08-24T00:15:34.088Z,0.00
2023-08-24T00:16:33.346Z,0.00
2023-08-24T00:17:33.381Z,0.00
2023-08-24T00:18:33.368Z,0.00
2023-08-24T00:19:33.309Z,0.00
2023-08-24T00:20:33.995Z,0.00
2023-08-24T00:21:33.296Z,0.00
2023-08-24T00:22:33.296Z,0.00
2023-08-24T00:23:33.957Z,0.00
2023-08-24T00:24:33.948Z,0.00
2023-08-24T00:25:33.950Z,0.00
2023-08-24T00:26:33.909Z,0.00
2023-08-24T00:27:33.897Z,0.00
2023-08-24T00:28:33.902Z,0.00
2023-08-24T00:29:33.213Z,0.00
2023-08-24T00:30:33.194Z,0.00
2023-08-24T00:31:33.264Z,0.00
2023-08-24T00:32:33.238Z,0.00
2023-08-24T00:33:33.175Z,0.00
2023-08-24T00:34:33.835Z,0.00
2023-08-24T00:35:33.821Z,0.00
2023-08-24T00:36:33.193Z,0.00
2023-08-24T00:37:33.213Z,0.00
2023-08-24T00:38:33.798Z,0.00
2023-08-24T00:39:33.818Z,0.00
2023-08-24T00:40:33.106Z,0.00
2023-08-24T00:41:33.768Z,0.00
2023-08-24T00:42:33.760Z,0.00
2023-08-24T00:43:33.752Z,0.00
2023-08-24T00:44:33.733Z,0.00
2023-08-24T00:45:33.744Z,0.00
2023-08-24T00:46:33.099Z,0.00
2023-08-24T00:47:33.030Z,0.00
2023-08-24T00:48:33.688Z,0.00
2023-08-24T00:49:33.661Z,0.00
2023-08-24T00:50:33.648Z,0.00
2023-08-24T00:51:32.983Z,0.00
2023-08-24T00:52:33.645Z,0.00
2023-08-24T00:53:33.001Z,0.00
2023-08-24T00:54:33.605Z,0.00
2023-08-24T00:55:32.902Z,0.00
2023-08-24T00:56:32.909Z,0.00
2023-08-24T00:57:33.590Z,0.00
2023-08-24T00:58:33.842Z,0.00
2023-08-24T00:59:33.553Z,0.00
2023-08-24T01:00:32.873Z,0.00
2023-08-24T01:01:33.569Z,0.00
2023-08-24T01:02:32.880Z,0.00
2023-08-24T01:03:33.666Z,0.00
2023-08-24T01:04:33.500Z,0.00
2023-08-24T01:05:33.506Z,0.00
2023-08-24T01:06:33.494Z,0.00
2023-08-24T01:07:32.793Z,0.00
2023-08-24T01:08:32.802Z,0.00
2023-08-24T01:09:33.461Z,0.00
2023-08-24T01:10:33.442Z,0.00
2023-08-24T01:11:33.434Z,0.00
2023-08-24T01:12:33.433Z,0.00
2023-08-24T01:13:33.408Z,0.00
2023-08-24T01:14:32.736Z,0.00
2023-08-24T01:15:33.908Z,0.00
2023-08-24T01:16:32.703Z,0.00
2023-08-24T01:17:32.726Z,0.00
2023-08-24T01:18:33.339Z,0.00
2023-08-24T01:19:32.669Z,0.00
2023-08-24T01:20:32.736Z,0.00
2023-08-24T01:21:32.665Z,0.00
2023-08-24T01:22:32.642Z,0.00
2023-08-24T01:23:33.308Z,0.00
2023-08-24T01:24:33.290Z,0.00
2023-08-24T01:25:32.608Z,0.00
2023-08-24T01:26:33.281Z,0.00
2023-08-24T01:27:33.239Z,0.00
2023-08-24T01:28:32.664Z,0.00
2023-08-24T01:29:33.241Z,0.00
2023-08-24T01:30:33.229Z,0.00
2023-08-24T01:31:32.553Z,0.00
2023-08-24T01:32:32.555Z,0.00
2023-08-24T01:33:33.216Z,0.00
2023-08-24T01:34:33.181Z,0.00
2023-08-24T01:35:33.178Z,0.00
2023-08-24T01:36:34.938Z,0.00
2023-08-24T01:37:33.159Z,0.00
2023-08-24T01:38:32.459Z,0.00
2023-08-24T01:39:33.139Z,0.00
2023-08-24T01:40:33.100Z,0.00
2023-08-24T01:41:33.100Z,0.00
2023-08-24T01:42:33.100Z,0.00
2023-08-24T01:43:43.264Z,0.00
2023-08-24T01:44:34.084Z,0.00
2023-08-24T01:45:33.068Z,0.00
2023-08-24T01:46:34.347Z,0.00
2023-08-24T01:47:32.400Z,0.00
2023-08-24T01:48:33.041Z,0.00
2023-08-24T01:49:33.040Z,0.00
2023-08-24T01:50:32.999Z,0.00
2023-08-24T01:51:33.013Z,0.00
2023-08-24T01:52:35.258Z,0.00
2023-08-24T01:53:32.286Z,0.00
2023-08-24T01:54:32.961Z,0.00
2023-08-24T01:55:32.289Z,0.00
2023-08-24T01:56:32.297Z,0.00
2023-08-24T01:57:32.971Z,0.00
2023-08-24T01:58:32.938Z,0.00
2023-08-24T01:59:32.916Z,0.00
2023-08-24T02:00:32.250Z,0.00
2023-08-24T02:01:32.903Z,0.00
2023-08-24T02:02:32.983Z,0.00
2023-08-24T02:03:32.976Z,0.00
2023-08-24T02:04:32.854Z,0.00
2023-08-24T02:05:32.163Z,0.00
2023-08-24T02:06:32.171Z,0.00
2023-08-24T02:07:32.839Z,0.00
2023-08-24T02:08:32.835Z,0.00
2023-08-24T02:09:32.153Z,0.00
2023-08-24T02:10:32.830Z,0.00
2023-08-24T02:11:32.119Z,0.00
2023-08-24T02:12:32.104Z,0.00
2023-08-24T02:13:32.114Z,0.00
2023-08-24T02:14:32.084Z,0.00
2023-08-24T02:15:32.772Z,0.00
2023-08-24T02:16:32.792Z,0.00
2023-08-24T02:17:32.064Z,0.00
2023-08-24T02:18:32.056Z,0.00
2023-08-24T02:19:32.031Z,0.00
2023-08-24T02:20:32.021Z,0.00
2023-08-24T02:21:32.697Z,0.00
2023-08-24T02:22:32.003Z,0.00
2023-08-24T02:23:32.652Z,0.00
2023-08-24T02:24:32.659Z,0.00
2023-08-24T02:25:31.961Z,0.00
2023-08-24T02:26:32.643Z,0.00
2023-08-24T02:27:32.630Z,0.00
2023-08-24T02:28:32.617Z,0.00
2023-08-24T02:29:32.870Z,0.00
2023-08-24T02:30:32.596Z,0.00
2023-08-24T02:31:32.609Z,0.00
2023-08-24T02:32:31.943Z,0.00
2023-08-24T02:33:32.576Z,0.00
2023-08-24T02:34:31.868Z,0.00
2023-08-24T02:35:31.862Z,0.00
2023-08-24T02:36:32.523Z,0.00
2023-08-24T02:37:32.507Z,0.00
2023-08-24T02:38:31.869Z,0.00
2023-08-24T02:39:31.811Z,0.00
2023-08-24T02:40:32.564Z,0.00
2023-08-24T02:41:31.809Z,0.00
2023-08-24T02:42:32.469Z,0.00
2023-08-24T02:43:31.808Z,0.00
2023-08-24T02:44:31.764Z,0.00
2023-08-24T02:45:32.431Z,0.00
2023-08-24T02:46:32.404Z,0.00
2023-08-24T02:47:31.755Z,0.00
2023-08-24T02:48:32.396Z,0.00
2023-08-24T02:49:32.383Z,0.00
2023-08-24T02:50:31.697Z,0.00
2023-08-24T02:51:31.732Z,0.00
2023-08-24T02:52:32.346Z,0.00
2023-08-24T02:53:32.342Z,0.00
2023-08-24T02:54:32.324Z,0.00
2023-08-24T02:55:32.332Z,0.00
2023-08-24T02:56:32.344Z,0.00
2023-08-24T02:57:32.322Z,0.00
2023-08-24T02:58:31.609Z,0.00
2023-08-24T02:59:32.254Z,0.00
2023-08-24T03:00:32.234Z,0.00
2023-08-24T03:01:31.656Z,0.00
2023-08-24T03:02:32.279Z,0.00
2023-08-24T03:03:32.226Z,0.00
2023-08-24T03:04:32.204Z,0.00
2023-08-24T03:05:31.521Z,0.00
2023-08-24T03:06:32.199Z,0.00
2023-08-24T03:07:32.180Z,0.00
2023-08-24T03:08:32.172Z,0.00
2023-08-24T03:09:32.134Z,0.00
2023-08-24T03:10:31.468Z,0.00
2023-08-24T03:11:32.148Z,0.00
2023-08-24T03:12:32.129Z,0.00
2023-08-24T03:13:32.095Z,0.00
2023-08-24T03:14:32.090Z,0.00
2023-08-24T03:15:32.088Z,0.00
2023-08-24T03:16:31.408Z,0.00
2023-08-24T03:17:31.518Z,0.00
2023-08-24T03:18:31.398Z,0.00
2023-08-24T03:19:32.046Z,0.00
2023-08-24T03:20:31.384Z,0.00
2023-08-24T03:21:31.362Z,0.00
2023-08-24T03:22:32.031Z,0.00
2023-08-24T03:23:31.989Z,0.00
2023-08-24T03:24:31.996Z,0.00
2023-08-24T03:25:31.986Z,0.00
2023-08-24T03:26:31.976Z,0.00
2023-08-24T03:27:31.945Z,0.00
2023-08-24T03:28:31.306Z,0.00
2023-08-24T03:29:31.946Z,0.00
2023-08-24T03:30:31.438Z,0.00
2023-08-24T03:31:31.972Z,0.00
2023-08-24T03:32:31.929Z,0.00
2023-08-24T03:33:31.225Z,0.00
2023-08-24T03:34:31.230Z,0.00
2023-08-24T03:35:31.896Z,0.00
2023-08-24T03:36:31.852Z,0.00
2023-08-24T03:37:31.210Z,0.00
2023-08-24T03:38:31.848Z,0.00
2023-08-24T03:39:31.175Z,0.00
2023-08-24T03:40:31.828Z,0.00
2023-08-24T03:41:31.793Z,0.00
2023-08-24T03:42:31.139Z,0.00
2023-08-24T03:43:31.792Z,0.00
2023-08-24T03:44:31.780Z,0.00
2023-08-24T03:45:31.175Z,0.00
2023-08-24T03:46:31.181Z,0.00
2023-08-24T03:47:31.762Z,0.00
2023-08-24T03:48:31.738Z,0.00
2023-08-24T03:49:31.729Z,0.00
2023-08-24T03:50:31.044Z,0.00
2023-08-24T03:51:31.700Z,0.00
2023-08-24T03:52:31.696Z,0.00
2023-08-24T03:53:31.003Z,0.00
2023-08-24T03:54:31.699Z,0.00
2023-08-24T03:55:31.645Z,0.00
2023-08-24T03:56:31.655Z,0.00
2023-08-24T03:57:30.960Z,0.00
2023-08-24T03:58:31.645Z,0.00
2023-08-24T03:59:30.955Z,0.00
2023-08-24T04:00:30.954Z,0.00
2023-08-24T04:01:31.037Z,0.00
2023-08-24T04:02:30.949Z,0.00
2023-08-24T04:03:30.964Z,0.00
2023-08-24T04:04:30.911Z,0.00
2023-08-24T04:05:30.941Z,0.00
2023-08-24T04:06:31.566Z,4.00
2023-08-24T04:07:31.536Z,4.00
2023-08-24T04:08:30.867Z,0.00
2023-08-24T04:09:31.504Z,4.00
2023-08-24T04:10:31.513Z,4.00
2023-08-24T04:11:30.829Z,4.00
2023-08-24T04:12:31.507Z,4.00
2023-08-24T04:13:31.469Z,8.00
2023-08-24T04:14:30.838Z,4.00
2023-08-24T04:15:31.745Z,8.00
2023-08-24T04:16:31.436Z,8.00
2023-08-24T04:17:31.448Z,8.00
2023-08-24T04:18:31.404Z,12.00
2023-08-24T04:19:31.388Z,8.00
2023-08-24T04:20:30.718Z,12.00
2023-08-24T04:21:30.848Z,12.00
2023-08-24T04:22:31.383Z,12.00
2023-08-24T04:23:30.709Z,16.00
2023-08-24T04:24:30.674Z,16.00
2023-08-24T04:25:30.667Z,16.00
2023-08-24T04:26:31.323Z,16.00
2023-08-24T04:27:30.679Z,20.00
2023-08-24T04:28:30.644Z,24.00
2023-08-24T04:29:31.294Z,28.00
2023-08-24T04:30:31.291Z,32.00
2023-08-24T04:31:30.606Z,36.00
2023-08-24T04:32:31.304Z,40.00
2023-08-24T04:33:31.264Z,44.00
2023-08-24T04:34:31.245Z,48.00
2023-08-24T04:35:31.234Z,52.00
2023-08-24T04:36:31.227Z,52.00
2023-08-24T04:37:30.540Z,56.00
2023-08-24T04:38:31.201Z,60.00
2023-08-24T04:39:31.194Z,60.00
2023-08-24T04:40:31.184Z,64.00
2023-08-24T04:41:31.152Z,64.00
2023-08-24T04:42:31.154Z,68.00
2023-08-24T04:43:31.156Z,72.00
2023-08-24T04:44:31.137Z,72.00
2023-08-24T04:45:31.140Z,72.00
2023-08-24T04:46:31.134Z,80.00
2023-08-24T04:47:31.159Z,80.00
2023-08-24T04:48:31.095Z,84.00
2023-08-24T04:49:30.402Z,92.00
2023-08-24T04:50:31.069Z,92.00
2023-08-24T04:51:31.054Z,100.00
2023-08-24T04:52:31.099Z,112.00
2023-08-24T04:53:31.064Z,124.00
2023-08-24T04:54:31.033Z,132.00
2023-08-24T04:55:31.002Z,148.00
2023-08-24T04:56:30.359Z,172.00
2023-08-24T04:57:31.002Z,192.00
2023-08-24T04:58:30.987Z,216.00
2023-08-24T04:59:30.986Z,232.00
2023-08-24T05:00:30.965Z,252.00
2023-08-24T05:01:30.951Z,284.00
2023-08-24T05:02:31.028Z,316.00
2023-08-24T05:03:30.934Z,360.00
2023-08-24T05:04:30.921Z,400.00
2023-08-24T05:05:30.250Z,440.00
2023-08-24T05:06:30.216Z,484.00
2023-08-24T05:07:30.894Z,508.00
2023-08-24T05:08:30.895Z,524.00
2023-08-24T05:09:31.654Z,536.00
2023-08-24T05:10:30.174Z,556.00
2023-08-24T05:11:30.854Z,576.00
2023-08-24T05:12:30.841Z,588.00
2023-08-24T05:13:30.826Z,616.00
2023-08-24T05:14:30.836Z,640.00
2023-08-24T05:15:30.811Z,672.00
2023-08-24T05:16:30.164Z,688.00
2023-08-24T05:17:30.118Z,700.00
2023-08-24T05:18:30.767Z,720.00
2023-08-24T05:19:30.763Z,744.00
2023-08-24T05:20:30.757Z,772.00
2023-08-24T05:21:30.066Z,796.00
2023-08-24T05:22:30.760Z,832.00
2023-08-24T05:23:30.702Z,888.00
2023-08-24T05:24:30.039Z,932.00
2023-08-24T05:25:30.032Z,920.00
2023-08-24T05:26:30.700Z,880.00
2023-08-24T05:27:30.683Z,864.00
2023-08-24T05:28:30.658Z,916.00
2023-08-24T05:29:29.981Z,964.00
2023-08-24T05:30:30.010Z,1060.00
2023-08-24T05:31:29.983Z,1360.00
2023-08-24T05:32:30.633Z,2156.00
2023-08-24T05:33:30.616Z,2680.00
2023-08-24T05:34:30.606Z,2560.00
2023-08-24T05:35:29.923Z,1988.00
2023-08-24T05:36:29.966Z,3208.00
2023-08-24T05:37:29.919Z,5512.00
2023-08-24T05:38:29.912Z,2792.00
2023-08-24T05:39:30.625Z,1256.00
2023-08-24T05:40:30.568Z,1228.00
2023-08-24T05:41:29.860Z,1264.00
2023-08-24T05:42:30.501Z,1324.00
2023-08-24T05:43:29.820Z,1208.00
2023-08-24T05:44:30.499Z,1308.00
2023-08-24T05:45:30.488Z,1264.00
2023-08-24T05:46:30.044Z,1336.00
2023-08-24T05:47:29.796Z,1404.00
2023-08-24T05:48:29.784Z,1636.00
2023-08-24T05:49:30.451Z,1724.00
2023-08-24T05:50:30.427Z,2004.00
2023-08-24T05:51:30.410Z,2060.00
2023-08-24T05:52:30.413Z,2308.00
2023-08-24T05:53:30.400Z,2248.00
2023-08-24T05:54:30.390Z,2304.00
2023-08-24T05:55:30.358Z,2500.00
2023-08-24T05:56:30.346Z,2548.00
2023-08-24T05:57:30.358Z,2772.00
2023-08-24T05:58:29.654Z,2736.00
2023-08-24T05:59:29.654Z,2748.00
2023-08-24T06:00:29.663Z,2688.00
2023-08-24T06:01:30.342Z,2712.00
2023-08-24T06:02:30.306Z,2556.00
2023-08-24T06:03:30.316Z,2592.00
2023-08-24T06:04:29.602Z,2712.00
2023-08-24T06:05:29.613Z,2808.00
2023-08-24T06:06:30.262Z,3256.00
2023-08-24T06:07:30.257Z,3964.00
2023-08-24T06:08:30.238Z,11424.00
2023-08-24T06:09:32.012Z,7308.00
2023-08-24T06:10:29.543Z,11700.00
2023-08-24T06:11:29.536Z,11520.00
2023-08-24T06:12:30.203Z,11308.00
2023-08-24T06:13:30.190Z,10536.00
2023-08-24T06:14:29.518Z,10296.00
2023-08-24T06:15:30.165Z,10872.00
2023-08-24T06:16:29.526Z,11112.00
2023-08-24T06:17:30.172Z,11356.00
2023-08-24T06:18:30.117Z,11088.00
2023-08-24T06:19:30.111Z,10664.00
2023-08-24T06:20:30.110Z,10568.00
2023-08-24T06:21:29.412Z,11228.00
2023-08-24T06:22:29.422Z,11528.00
2023-08-24T06:23:29.419Z,11680.00
2023-08-24T06:24:30.066Z,11552.00
2023-08-24T06:25:30.055Z,11220.00
2023-08-24T06:26:30.073Z,11280.00
2023-08-24T06:27:29.352Z,11384.00
2023-08-24T06:28:30.031Z,11676.00
2023-08-24T06:29:30.016Z,12448.00
2023-08-24T06:30:30.003Z,12500.00
2023-08-24T06:31:30.014Z,11908.00
2023-08-24T06:32:29.338Z,11768.00
2023-08-24T06:33:29.301Z,11644.00
2023-08-24T06:34:29.301Z,12308.00
2023-08-24T06:35:29.269Z,13456.00
2023-08-24T06:36:29.939Z,14496.00
2023-08-24T06:37:29.258Z,15168.00
2023-08-24T06:38:29.930Z,14784.00
2023-08-24T06:39:29.906Z,13564.00
2023-08-24T06:40:29.913Z,13908.00
2023-08-24T06:41:29.193Z,14348.00
2023-08-24T06:42:29.857Z,14880.00
2023-08-24T06:43:29.874Z,16832.00
2023-08-24T06:44:29.872Z,19040.00
2023-08-24T06:45:29.847Z,20288.00
2023-08-24T06:46:29.817Z,18240.00
2023-08-24T06:47:29.179Z,15072.00
2023-08-24T06:48:29.140Z,13128.00
2023-08-24T06:49:29.819Z,12044.00
2023-08-24T06:50:29.110Z,10328.00
2023-08-24T06:51:29.770Z,9548.00
2023-08-24T06:52:29.773Z,9368.00
2023-08-24T06:53:29.074Z,9304.00
2023-08-24T06:54:29.747Z,9308.00
2023-08-24T06:55:29.736Z,9256.00
2023-08-24T06:56:29.064Z,9216.00
2023-08-24T06:57:29.043Z,9208.00
2023-08-24T06:58:29.032Z,9144.00
2023-08-24T06:59:29.021Z,9164.00
2023-08-24T07:00:29.667Z,9232.00
2023-08-24T07:01:29.704Z,9240.00
2023-08-24T07:02:29.691Z,9220.00
2023-08-24T07:03:29.653Z,9312.00
2023-08-24T07:04:29.044Z,9324.00
2023-08-24T07:05:28.974Z,9308.00
2023-08-24T07:06:29.620Z,9312.00
2023-08-24T07:07:29.610Z,9348.00
2023-08-24T07:08:29.615Z,9364.00
2023-08-24T07:09:29.585Z,9416.00
2023-08-24T07:10:29.569Z,9408.00
2023-08-24T07:11:29.566Z,9440.00
2023-08-24T07:12:29.562Z,9164.00
2023-08-24T07:13:29.548Z,9540.00
2023-08-24T07:14:29.516Z,9580.00
2023-08-24T07:15:28.857Z,9588.00
2023-08-24T07:16:28.832Z,9660.00
2023-08-24T07:17:29.615Z,9688.00
2023-08-24T07:18:29.501Z,9680.00
2023-08-24T07:19:29.469Z,9676.00
2023-08-24T07:20:28.775Z,9152.00
2023-08-24T07:21:28.772Z,9720.00
2023-08-24T07:22:29.452Z,9732.00
2023-08-24T07:23:29.430Z,9716.00
2023-08-24T07:24:42.986Z,9844.00
2023-08-24T07:25:29.729Z,9948.00
2023-08-24T07:26:29.669Z,10104.00
2023-08-24T07:27:28.719Z,10112.00
2023-08-24T07:28:28.740Z,10192.00
2023-08-24T07:29:29.381Z,10236.00
2023-08-24T07:30:34.091Z,10276.00
2023-08-24T07:31:29.744Z,10308.00
2023-08-24T07:32:28.786Z,10272.00
2023-08-24T07:33:29.323Z,10280.00
2023-08-24T07:34:28.642Z,10264.00
2023-08-24T07:35:29.323Z,10348.00
2023-08-24T07:36:29.312Z,10408.00
2023-08-24T07:37:29.282Z,10552.00
2023-08-24T07:38:29.287Z,10660.00
2023-08-24T07:39:28.607Z,10656.00
2023-08-24T07:40:28.649Z,10596.00
2023-08-24T07:41:29.259Z,10536.00
2023-08-24T07:42:29.234Z,10512.00
2023-08-24T07:43:29.271Z,10460.00
2023-08-24T07:44:29.268Z,10472.00
2023-08-24T07:45:29.233Z,10500.00
2023-08-24T07:46:29.188Z,10520.00
2023-08-24T07:47:28.567Z,10612.00
2023-08-24T07:48:28.500Z,10608.00
2023-08-24T07:49:28.507Z,10612.00
2023-08-24T07:50:29.160Z,10564.00
2023-08-24T07:51:28.526Z,10540.00
2023-08-24T07:52:28.468Z,10564.00
2023-08-24T07:53:29.139Z,10712.00
2023-08-24T07:54:29.129Z,10876.00
2023-08-24T07:55:30.884Z,10888.00
2023-08-24T07:56:29.101Z,10960.00
2023-08-24T07:57:28.436Z,10892.00
2023-08-24T07:58:29.092Z,10856.00
2023-08-24T07:59:29.071Z,10784.00
2023-08-24T08:00:28.417Z,10712.00
2023-08-24T08:01:28.418Z,10764.00
2023-08-24T08:02:28.432Z,10748.00
2023-08-24T08:03:28.421Z,10732.00
2023-08-24T08:04:28.343Z,10696.00
2023-08-24T08:05:28.345Z,10644.00
2023-08-24T08:06:29.006Z,10556.00
2023-08-24T08:07:28.997Z,10588.00
2023-08-24T08:08:28.989Z,10600.00
2023-08-24T08:09:28.952Z,10552.00
2023-08-24T08:10:28.292Z,10536.00
2023-08-24T08:11:28.951Z,10528.00
2023-08-24T08:12:28.951Z,10520.00
2023-08-24T08:13:29.373Z,10476.00
2023-08-24T08:14:28.905Z,10228.00
2023-08-24T08:15:28.249Z,10316.00
2023-08-24T08:16:28.894Z,10236.00
2023-08-24T08:17:28.928Z,10208.00
2023-08-24T08:18:28.879Z,10192.00
2023-08-24T08:19:28.847Z,10096.00
2023-08-24T08:20:28.177Z,10108.00
2023-08-24T08:21:28.152Z,10076.00
2023-08-24T08:22:28.171Z,10000.00
2023-08-24T08:23:28.816Z,10004.00
2023-08-24T08:24:28.797Z,9932.00
2023-08-24T08:25:28.806Z,9868.00
2023-08-24T08:26:28.799Z,9852.00
2023-08-24T08:27:28.099Z,9844.00
2023-08-24T08:28:28.756Z,9872.00
2023-08-24T08:29:28.080Z,9852.00
2023-08-24T08:30:28.780Z,9844.00
2023-08-24T08:31:28.787Z,9760.00
2023-08-24T08:32:28.796Z,9772.00
2023-08-24T08:33:28.059Z,8732.00
2023-08-24T08:34:28.708Z,8060.00
2023-08-24T08:35:28.019Z,9308.00
2023-08-24T08:36:28.691Z,9444.00
2023-08-24T08:37:28.665Z,9456.00
2023-08-24T08:38:28.651Z,9176.00
2023-08-24T08:39:28.660Z,8756.00
2023-08-24T08:40:28.646Z,8524.00
2023-08-24T08:41:28.670Z,8116.00
2023-08-24T08:42:28.009Z,8504.00
2023-08-24T08:43:27.918Z,9012.00
2023-08-24T08:44:27.915Z,8900.00
2023-08-24T08:45:27.994Z,8444.00
2023-08-24T08:46:28.644Z,8200.00
2023-08-24T08:47:28.592Z,7188.00
2023-08-24T08:48:28.584Z,8000.00
2023-08-24T08:49:27.891Z,7736.00
2023-08-24T08:50:30.588Z,7892.00
2023-08-24T08:51:27.865Z,7688.00
2023-08-24T08:52:27.839Z,7532.00
2023-08-24T08:53:28.520Z,7416.00
2023-08-24T08:54:27.821Z,7300.00
2023-08-24T08:55:27.799Z,7148.00
2023-08-24T08:56:27.872Z,7020.00
2023-08-24T08:57:29.007Z,6924.00
2023-08-24T08:58:28.471Z,6832.00
2023-08-24T08:59:27.768Z,6748.00
2023-08-24T09:00:27.768Z,6668.00
2023-08-24T09:01:28.410Z,6544.00
2023-08-24T09:02:27.798Z,6500.00
2023-08-24T09:03:27.739Z,6468.00
2023-08-24T09:04:28.443Z,6400.00
2023-08-24T09:05:28.371Z,6352.00
2023-08-24T09:06:28.379Z,6356.00
2023-08-24T09:07:27.674Z,6328.00
2023-08-24T09:08:27.683Z,6392.00
2023-08-24T09:09:27.677Z,6588.00
2023-08-24T09:10:27.697Z,6500.00
2023-08-24T09:11:28.333Z,6448.00
2023-08-24T09:12:27.619Z,6524.00
2023-08-24T09:13:28.310Z,6756.00
2023-08-24T09:14:27.636Z,6776.00
2023-08-24T09:15:27.631Z,6856.00
2023-08-24T09:16:28.332Z,6900.00
2023-08-24T09:17:27.645Z,6912.00
2023-08-24T09:18:28.263Z,6800.00
2023-08-24T09:19:28.233Z,6868.00
2023-08-24T09:20:27.577Z,7036.00
2023-08-24T09:21:28.230Z,7252.00
2023-08-24T09:22:28.230Z,7364.00
2023-08-24T09:23:28.195Z,7432.00
2023-08-24T09:24:28.180Z,7560.00
2023-08-24T09:25:27.560Z,7676.00
2023-08-24T09:26:27.484Z,7860.00
2023-08-24T09:27:28.170Z,7972.00
2023-08-24T09:28:27.484Z,7912.00
2023-08-24T09:29:28.162Z,7844.00
2023-08-24T09:30:28.398Z,7652.00
2023-08-24T09:31:27.436Z,7448.00
2023-08-24T09:32:27.440Z,7300.00
2023-08-24T09:33:29.367Z,7248.00
2023-08-24T09:34:28.096Z,7056.00
2023-08-24T09:35:28.082Z,6944.00
2023-08-24T09:36:28.076Z,6940.00
2023-08-24T09:37:28.048Z,6892.00
2023-08-24T09:38:27.370Z,6932.00
2023-08-24T09:39:28.042Z,6960.00
2023-08-24T09:40:28.044Z,6896.00
2023-08-24T09:41:27.340Z,6840.00
2023-08-24T09:42:29.698Z,6944.00
2023-08-24T09:43:28.003Z,7188.00
2023-08-24T09:44:27.335Z,7324.00
2023-08-24T09:45:28.034Z,7488.00
2023-08-24T09:46:27.351Z,7684.00
2023-08-24T09:47:28.002Z,7612.00
2023-08-24T09:48:30.061Z,7492.00
2023-08-24T09:49:27.244Z,7468.00
2023-08-24T09:50:28.179Z,7376.00
2023-08-24T09:51:27.906Z,7276.00
2023-08-24T09:52:27.249Z,7172.00
2023-08-24T09:53:27.900Z,7212.00
2023-08-24T09:54:27.241Z,7196.00
2023-08-24T09:55:27.891Z,7232.00
2023-08-24T09:56:27.866Z,7248.00
2023-08-24T09:57:27.195Z,7280.00
2023-08-24T09:58:27.162Z,7392.00
2023-08-24T09:59:27.185Z,7388.00
2023-08-24T10:00:27.817Z,7412.00
2023-08-24T10:01:27.846Z,7436.00
2023-08-24T10:02:27.216Z,7612.00
2023-08-24T10:03:27.377Z,7760.00
2023-08-24T10:04:27.785Z,7740.00
2023-08-24T10:05:36.996Z,7700.00
2023-08-24T10:06:28.076Z,7588.00
2023-08-24T10:07:27.755Z,7436.00
2023-08-24T10:08:27.096Z,7376.00
2023-08-24T10:09:27.752Z,7208.00
2023-08-24T10:10:27.707Z,7092.00
2023-08-24T10:11:27.711Z,6924.00
2023-08-24T10:12:27.027Z,6752.00
2023-08-24T10:13:27.001Z,6604.00
2023-08-24T10:14:27.677Z,6512.00
2023-08-24T10:15:27.001Z,6364.00
2023-08-24T10:16:27.030Z,6336.00
2023-08-24T10:17:27.034Z,6316.00
2023-08-24T10:18:26.955Z,6236.00
2023-08-24T10:19:26.973Z,6152.00
2023-08-24T10:20:26.944Z,6052.00
2023-08-24T10:21:27.612Z,6092.00
2023-08-24T10:22:27.598Z,6224.00
2023-08-24T10:23:27.585Z,6156.00
2023-08-24T10:24:27.568Z,6096.00
2023-08-24T10:25:26.881Z,5928.00
2023-08-24T10:26:26.870Z,5880.00
2023-08-24T10:27:27.546Z,5820.00
2023-08-24T10:28:26.871Z,5884.00
2023-08-24T10:29:27.511Z,5908.00
2023-08-24T10:30:27.515Z,6048.00
2023-08-24T10:31:26.837Z,6144.00
2023-08-24T10:32:27.571Z,6120.00
2023-08-24T10:33:26.871Z,5792.00
2023-08-24T10:34:27.482Z,5696.00
2023-08-24T10:35:27.465Z,5172.00
2023-08-24T10:36:27.448Z,5628.00
2023-08-24T10:37:27.431Z,5316.00
2023-08-24T10:38:27.424Z,5132.00
2023-08-24T10:39:26.794Z,4872.00
2023-08-24T10:40:27.410Z,4632.00
2023-08-24T10:41:27.404Z,4504.00
2023-08-24T10:42:26.716Z,4384.00
2023-08-24T10:43:26.696Z,4232.00
2023-08-24T10:44:26.762Z,4020.00
2023-08-24T10:45:26.722Z,4476.00
2023-08-24T10:46:27.439Z,4336.00
2023-08-24T10:47:26.735Z,4576.00
2023-08-24T10:48:26.653Z,4704.00
2023-08-24T10:49:26.632Z,4604.00
2023-08-24T10:50:26.747Z,4348.00
2023-08-24T10:51:26.644Z,4212.00
2023-08-24T10:52:27.272Z,4152.00
2023-08-24T10:53:27.277Z,4100.00
2023-08-24T10:54:26.601Z,4064.00
2023-08-24T10:55:26.551Z,4064.00
2023-08-24T10:56:26.608Z,4056.00
2023-08-24T10:57:27.239Z,4024.00
2023-08-24T10:58:27.225Z,4060.00
2023-08-24T10:59:28.544Z,4080.00
2023-08-24T11:00:27.508Z,4056.00
2023-08-24T11:01:27.237Z,3984.00
2023-08-24T11:02:28.960Z,3992.00
2023-08-24T11:03:27.305Z,4048.00
2023-08-24T11:04:27.165Z,4028.00
2023-08-24T11:05:26.482Z,4016.00
2023-08-24T11:06:27.124Z,4028.00
2023-08-24T11:07:26.456Z,4052.00
2023-08-24T11:08:27.161Z,4040.00
2023-08-24T11:09:27.112Z,4012.00
2023-08-24T11:10:26.478Z,3996.00
2023-08-24T11:11:27.092Z,4004.00
2023-08-24T11:12:27.077Z,4004.00
2023-08-24T11:13:26.387Z,3968.00
2023-08-24T11:14:26.392Z,3988.00
2023-08-24T11:15:26.411Z,4016.00
2023-08-24T11:16:27.044Z,4052.00
2023-08-24T11:17:27.039Z,4100.00
2023-08-24T11:18:27.017Z,3968.00
2023-08-24T11:19:27.000Z,4096.00
2023-08-24T11:20:26.318Z,4092.00
2023-08-24T11:21:26.990Z,4104.00
2023-08-24T11:22:26.978Z,4108.00
2023-08-24T11:23:26.972Z,4112.00
2023-08-24T11:24:26.940Z,4128.00
2023-08-24T11:25:26.949Z,4100.00
2023-08-24T11:26:26.273Z,4088.00
2023-08-24T11:27:28.210Z,4068.00
2023-08-24T11:28:27.017Z,4088.00
2023-08-24T11:29:26.270Z,4112.00
2023-08-24T11:30:26.226Z,4156.00
2023-08-24T11:31:26.953Z,4240.00
2023-08-24T11:32:26.240Z,4320.00
2023-08-24T11:33:26.211Z,4372.00
2023-08-24T11:34:26.855Z,4468.00
2023-08-24T11:35:26.174Z,4576.00
2023-08-24T11:36:26.145Z,4664.00
2023-08-24T11:37:26.830Z,4760.00
2023-08-24T11:38:26.180Z,4872.00
2023-08-24T11:39:26.850Z,4988.00
2023-08-24T11:40:26.107Z,5048.00
2023-08-24T11:41:26.151Z,5152.00
2023-08-24T11:42:26.756Z,5260.00
2023-08-24T11:43:26.796Z,5364.00
2023-08-24T11:44:29.575Z,5456.00
2023-08-24T11:45:26.079Z,5520.00
2023-08-24T11:46:26.781Z,5548.00
2023-08-24T11:47:26.053Z,5508.00
2023-08-24T11:48:26.711Z,5524.00
2023-08-24T11:49:26.696Z,5560.00
2023-08-24T11:50:26.020Z,5528.00
2023-08-24T11:51:37.728Z,5508.00
2023-08-24T11:52:27.647Z,5476.00
2023-08-24T11:53:26.661Z,5456.00
2023-08-24T11:54:26.649Z,5444.00
2023-08-24T11:55:26.637Z,5412.00
2023-08-24T11:56:26.607Z,5392.00
2023-08-24T11:57:25.929Z,5356.00
2023-08-24T11:58:26.607Z,5356.00
2023-08-24T11:59:26.596Z,5340.00
2023-08-24T12:00:26.589Z,5320.00
2023-08-24T12:01:26.599Z,5332.00
2023-08-24T12:02:25.907Z,5364.00
2023-08-24T12:03:25.960Z,5400.00
2023-08-24T12:04:25.861Z,5416.00
2023-08-24T12:05:25.881Z,5412.00
2023-08-24T12:06:26.516Z,5420.00
2023-08-24T12:07:25.820Z,5420.00
2023-08-24T12:08:25.834Z,5412.00
2023-08-24T12:09:25.814Z,5480.00
2023-08-24T12:10:26.473Z,5500.00
2023-08-24T12:11:25.797Z,5524.00
2023-08-24T12:12:25.886Z,5600.00
2023-08-24T12:13:25.767Z,5720.00
2023-08-24T12:14:25.766Z,5732.00
2023-08-24T12:15:26.415Z,5724.00
2023-08-24T12:16:26.422Z,5748.00
2023-08-24T12:17:26.408Z,5748.00
2023-08-24T12:18:25.713Z,5632.00
2023-08-24T12:19:26.382Z,5584.00
2023-08-24T12:20:25.715Z,5528.00
2023-08-24T12:21:25.718Z,5452.00
2023-08-24T12:22:25.685Z,5524.00
2023-08-24T12:23:25.684Z,5496.00
2023-08-24T12:24:25.676Z,5532.00
2023-08-24T12:25:25.685Z,5672.00
2023-08-24T12:26:25.652Z,5724.00
2023-08-24T12:27:26.691Z,5700.00
2023-08-24T12:28:26.300Z,5656.00
2023-08-24T12:29:25.648Z,5592.00